createdAt,value
2023-10-24T00:01:16.853Z,10.40
2023-10-24T00:03:44.067Z,13.68
2023-10-24T00:06:11.052Z,12.63
2023-10-24T00:08:37.809Z,16.90
2023-10-24T00:14:49.481Z,16.58
2023-10-24T00:15:08.233Z,12.43
2023-10-24T00:17:35.082Z,11.02
2023-10-24T00:20:03.967Z,10.23
2023-10-24T00:22:35.731Z,10.30
2023-10-24T00:25:02.626Z,10.50
2023-10-24T00:28:32.138Z,10.95
2023-10-24T00:33:57.675Z,11.55
2023-10-24T00:36:26.531Z,15.05
2023-10-24T00:42:18.816Z,11.65
2023-10-24T00:44:39.060Z,10.60
2023-10-24T00:44:45.619Z,11.50
2023-10-24T00:47:21.720Z,13.02
2023-10-24T00:50:38.964Z,11.63
2023-10-24T00:53:05.504Z,7.97
2023-10-24T00:55:37.879Z,18.95
2023-10-24T00:58:56.834Z,11.20
2023-10-24T01:01:26.598Z,9.55
2023-10-24T01:03:57.575Z,16.65
2023-10-24T01:06:24.611Z,12.90
2023-10-24T01:08:51.628Z,13.55
2023-10-24T01:11:19.087Z,17.30
2023-10-24T01:16:12.239Z,17.05
2023-10-24T01:16:56.381Z,10.52
2023-10-24T01:19:23.265Z,12.02
2023-10-24T01:21:50.579Z,9.18
2023-10-24T01:24:18.448Z,8.85
2023-10-24T01:26:46.028Z,11.57
2023-10-24T01:29:13.136Z,10.77
2023-10-24T01:31:42.771Z,10.25
2023-10-24T01:34:09.751Z,14.18
2023-10-24T01:36:37.914Z,10.23
2023-10-24T01:39:04.886Z,9.40
2023-10-24T01:42:02.069Z,11.88
2023-10-24T01:46:52.855Z,15.48
2023-10-24T01:49:24.416Z,11.93
2023-10-24T01:52:45.092Z,13.15
2023-10-24T01:55:12.549Z,11.43
2023-10-24T01:57:43.438Z,12.65
2023-10-24T02:01:01.056Z,16.90
2023-10-24T02:03:28.468Z,14.45
2023-10-24T02:05:55.550Z,12.30
2023-10-24T02:08:24.369Z,12.77
2023-10-24T02:10:52.177Z,14.68
2023-10-24T02:13:22.615Z,12.35
2023-10-24T02:15:49.415Z,12.70
2023-10-24T02:18:16.264Z,14.40
2023-10-24T02:20:44.110Z,17.17
2023-10-24T02:23:13.522Z,19.10
2023-10-24T02:25:40.942Z,13.77
2023-10-24T02:28:14.120Z,12.32
2023-10-24T02:30:57.444Z,14.07
2023-10-24T02:33:24.325Z,17.05
2023-10-24T02:35:51.975Z,14.63
2023-10-24T02:38:18.910Z,14.85
2023-10-24T02:40:53.676Z,18.67
2023-10-24T02:43:20.494Z,17.67
2023-10-24T02:45:47.252Z,14.48
2023-10-24T02:48:14.131Z,17.25
2023-10-24T02:50:43.323Z,18.33
2023-10-24T02:53:10.447Z,15.82
2023-10-24T02:55:37.512Z,16.60
2023-10-24T02:58:29.475Z,16.15
2023-10-24T03:00:58.652Z,15.32
2023-10-24T03:03:25.945Z,17.38
2023-10-24T03:05:53.030Z,19.08
2023-10-24T03:10:43.591Z,18.88
2023-10-24T03:11:24.676Z,22.63
2023-10-24T03:13:58.366Z,28.25
2023-10-24T03:16:25.209Z,36.63
2023-10-24T03:19:02.770Z,28.75
2023-10-24T03:21:29.595Z,27.02
2023-10-24T03:24:18.878Z,26.67
2023-10-24T03:26:43.926Z,30.77
2023-10-24T03:29:10.675Z,29.73
2023-10-24T03:31:37.929Z,36.22
2023-10-24T03:34:05.020Z,40.15
2023-10-24T03:36:31.781Z,33.45
2023-10-24T03:38:58.483Z,32.47
2023-10-24T03:41:25.283Z,37.30
2023-10-24T03:43:53.321Z,33.67
2023-10-24T03:46:20.347Z,32.75
2023-10-24T03:48:47.202Z,32.78
2023-10-24T03:51:13.912Z,31.65
2023-10-24T03:53:40.686Z,30.17
2023-10-24T03:56:07.428Z,33.17
2023-10-24T03:58:34.230Z,30.10
2023-10-24T04:01:07.521Z,33.33
2023-10-24T04:03:36.242Z,44.03
2023-10-24T04:06:03.545Z,38.80
2023-10-24T04:08:30.298Z,30.05
2023-10-24T04:10:57.082Z,34.80
2023-10-24T04:13:24.045Z,35.95
2023-10-24T04:15:57.980Z,38.08
2023-10-24T04:18:24.711Z,37.80
2023-10-24T04:20:51.567Z,38.22
2023-10-24T04:23:18.372Z,36.47
2023-10-24T04:25:45.831Z,35.45
2023-10-24T04:28:13.253Z,39.72
2023-10-24T04:30:41.025Z,39.65
2023-10-24T04:33:08.692Z,45.60
2023-10-24T04:35:48.374Z,40.30
2023-10-24T04:38:16.765Z,39.80
2023-10-24T04:40:44.221Z,44.08
2023-10-24T04:43:11.116Z,44.40
2023-10-24T04:45:38.305Z,44.88
2023-10-24T04:48:06.197Z,46.28
2023-10-24T04:50:37.713Z,47.55
2023-10-24T04:53:04.573Z,41.15
2023-10-24T04:55:31.377Z,48.25
2023-10-24T04:57:58.723Z,41.42
2023-10-24T05:00:28.420Z,40.78
2023-10-24T05:02:55.414Z,40.53
2023-10-24T05:05:22.465Z,44.15
2023-10-24T05:07:50.284Z,39.75
2023-10-24T05:10:17.212Z,38.13
2023-10-24T05:12:44.001Z,42.83
2023-10-24T05:15:10.970Z,43.92
2023-10-24T05:17:38.129Z,43.15
2023-10-24T05:20:08.691Z,43.53
2023-10-24T05:22:36.046Z,48.08
2023-10-24T05:25:03.186Z,48.30
2023-10-24T05:27:32.668Z,47.97
2023-10-24T05:29:59.634Z,46.75
2023-10-24T05:32:26.514Z,44.55
2023-10-24T05:34:53.378Z,45.40
2023-10-24T05:37:20.310Z,50.15
2023-10-24T05:39:47.136Z,45.15
2023-10-24T05:42:13.913Z,60.80
2023-10-24T05:44:41.027Z,54.75
2023-10-24T05:47:07.821Z,54.40
2023-10-24T05:49:35.453Z,154.00
2023-10-24T05:52:02.251Z,54.78
2023-10-24T05:54:28.974Z,58.65
2023-10-24T05:56:55.867Z,50.42
2023-10-24T05:59:22.724Z,50.67
2023-10-24T06:01:49.579Z,51.28
2023-10-24T06:04:16.387Z,47.05
2023-10-24T06:06:44.077Z,51.22
2023-10-24T06:09:13.684Z,58.17
2023-10-24T06:11:40.922Z,56.92
2023-10-24T06:14:07.778Z,55.15
2023-10-24T06:16:34.532Z,49.65
2023-10-24T06:19:01.429Z,56.17
2023-10-24T06:21:29.740Z,58.88
2023-10-24T06:23:56.935Z,59.83
2023-10-24T06:26:23.667Z,55.95
2023-10-24T06:28:50.769Z,66.93
2023-10-24T06:31:18.384Z,63.42
2023-10-24T06:33:45.274Z,55.97
2023-10-24T06:36:12.104Z,52.17
2023-10-24T06:38:38.868Z,49.38
2023-10-24T06:41:11.128Z,51.30
2023-10-24T06:43:38.187Z,47.97
2023-10-24T06:46:06.334Z,54.75
2023-10-24T06:48:33.801Z,61.40
2023-10-24T06:51:00.833Z,52.03
2023-10-24T06:53:27.780Z,61.15
2023-10-24T06:56:00.462Z,54.20
2023-10-24T06:58:30.999Z,59.63
2023-10-24T07:00:58.239Z,58.90
2023-10-24T07:03:25.682Z,63.42
2023-10-24T07:05:53.414Z,69.22
2023-10-24T07:08:21.731Z,66.60
2023-10-24T07:10:49.422Z,70.10
2023-10-24T07:13:16.525Z,52.95
2023-10-24T07:15:43.653Z,48.15
2023-10-24T07:18:12.145Z,48.95
2023-10-24T07:20:40.027Z,41.30
2023-10-24T07:23:08.050Z,41.85
2023-10-24T07:25:34.929Z,39.85
2023-10-24T07:28:03.107Z,43.90
2023-10-24T07:30:31.009Z,35.97
2023-10-24T07:32:58.296Z,34.60
2023-10-24T07:35:25.069Z,37.40
2023-10-24T07:37:51.848Z,36.72
2023-10-24T07:40:20.316Z,34.88
2023-10-24T07:42:47.811Z,34.72
2023-10-24T07:45:15.016Z,34.90
2023-10-24T07:47:41.942Z,32.38
2023-10-24T07:50:10.118Z,32.22
2023-10-24T07:52:37.031Z,32.80
2023-10-24T07:55:04.242Z,30.50
2023-10-24T07:57:31.153Z,29.73
2023-10-24T07:59:58.951Z,29.45
2023-10-24T08:02:25.823Z,28.23
2023-10-24T08:04:52.744Z,28.27
2023-10-24T08:07:19.659Z,29.35
2023-10-24T08:09:46.515Z,28.00
2023-10-24T08:12:13.995Z,25.73
2023-10-24T08:14:40.985Z,27.30
2023-10-24T08:17:08.102Z,25.02
2023-10-24T08:19:35.021Z,24.30
2023-10-24T08:22:01.814Z,26.23
2023-10-24T08:24:28.577Z,30.33
2023-10-24T08:27:09.847Z,28.95
2023-10-24T08:29:38.069Z,30.85
2023-10-24T08:32:09.420Z,26.25
2023-10-24T08:34:38.299Z,25.95
2023-10-24T08:37:06.432Z,22.70
2023-10-24T08:39:33.144Z,27.33
2023-10-24T08:41:59.868Z,26.10
2023-10-24T08:44:28.104Z,24.05
2023-10-24T08:46:55.358Z,26.92
2023-10-24T08:49:22.646Z,25.13
2023-10-24T08:51:49.397Z,26.00
2023-10-24T08:54:16.230Z,29.60
2023-10-24T08:56:43.616Z,29.80
2023-10-24T08:59:12.425Z,28.85
2023-10-24T09:01:42.213Z,31.45
2023-10-24T09:04:09.235Z,27.23
2023-10-24T09:06:38.187Z,25.20
2023-10-24T09:09:05.430Z,25.80
2023-10-24T09:11:51.965Z,23.48
2023-10-24T09:14:18.902Z,23.58
2023-10-24T09:16:45.883Z,19.75
2023-10-24T09:19:15.811Z,19.00
2023-10-24T09:21:53.076Z,17.50
2023-10-24T09:24:30.555Z,18.98
2023-10-24T09:26:57.999Z,16.17
2023-10-24T09:29:27.788Z,17.95
2023-10-24T09:32:00.058Z,17.63
2023-10-24T09:34:28.376Z,18.83
2023-10-24T09:37:07.371Z,18.05
2023-10-24T09:39:58.032Z,18.40
2023-10-24T09:42:36.207Z,17.48
2023-10-24T09:45:07.342Z,15.88
2023-10-24T09:47:41.165Z,13.63
2023-10-24T09:50:11.378Z,14.35
2023-10-24T09:52:39.543Z,12.77
2023-10-24T09:55:07.330Z,10.98
2023-10-24T09:57:35.162Z,10.30
2023-10-24T10:00:04.662Z,15.07
2023-10-24T10:02:41.977Z,8.38
2023-10-24T10:05:09.371Z,9.80
2023-10-24T10:07:38.226Z,9.02
2023-10-24T10:10:06.636Z,9.68
2023-10-24T10:12:35.026Z,10.00
2023-10-24T10:15:23.636Z,13.27
2023-10-24T10:18:21.919Z,9.25
2023-10-24T10:21:09.234Z,10.00
2023-10-24T10:23:48.562Z,9.07
2023-10-24T10:26:30.906Z,7.78
2023-10-24T10:29:33.334Z,7.72
2023-10-24T10:32:39.355Z,7.45
2023-10-24T10:35:07.241Z,6.80
2023-10-24T10:37:35.736Z,5.03
2023-10-24T10:40:19.825Z,5.68
2023-10-24T10:42:49.392Z,5.50
2023-10-24T10:45:29.945Z,6.50
2023-10-24T10:48:05.854Z,8.23
2023-10-24T10:50:34.731Z,8.75
2023-10-24T10:53:14.277Z,7.22
2023-10-24T10:55:53.498Z,5.85
2023-10-24T10:58:33.039Z,6.07
2023-10-24T11:01:23.414Z,6.18
2023-10-24T11:03:50.837Z,5.78
2023-10-24T11:06:18.821Z,7.78
2023-10-24T11:09:11.670Z,7.07
2023-10-24T11:11:41.500Z,7.75
2023-10-24T11:14:16.290Z,7.32
2023-10-24T11:16:44.262Z,9.88
2023-10-24T11:19:19.695Z,4.97
2023-10-24T11:21:54.448Z,4.07
2023-10-24T11:24:23.095Z,2.85
2023-10-24T11:26:57.291Z,5.63
2023-10-24T11:29:24.328Z,2.75
2023-10-24T11:31:51.978Z,2.17
2023-10-24T11:34:20.119Z,4.60
2023-10-24T11:36:47.349Z,1.90
2023-10-24T11:39:17.421Z,9.48
2023-10-24T11:41:45.093Z,4.55
2023-10-24T11:44:18.889Z,4.80
2023-10-24T11:46:46.224Z,2.45
2023-10-24T11:49:13.288Z,2.10
2023-10-24T11:51:40.467Z,2.30
2023-10-24T11:54:08.851Z,2.00
2023-10-24T11:56:35.755Z,4.70
2023-10-24T11:59:04.639Z,2.13
2023-10-24T12:01:34.802Z,1.83
2023-10-24T12:04:02.406Z,2.10
2023-10-24T12:06:30.689Z,4.43
2023-10-24T12:08:59.349Z,5.47
2023-10-24T12:11:26.448Z,4.20
2023-10-24T12:13:53.577Z,2.05
2023-10-24T12:16:20.554Z,2.15
2023-10-24T12:18:47.330Z,1.80
2023-10-24T12:21:15.026Z,2.28
2023-10-24T12:23:41.978Z,1.80
2023-10-24T12:26:09.197Z,1.85
2023-10-24T12:28:37.586Z,2.00
2023-10-24T12:31:07.517Z,2.17
2023-10-24T12:33:34.329Z,2.20
2023-10-24T12:36:02.253Z,3.28
2023-10-24T12:38:30.177Z,3.80
2023-10-24T12:40:57.606Z,3.88
2023-10-24T12:43:25.080Z,2.33
2023-10-24T12:45:52.562Z,2.58
2023-10-24T12:48:20.694Z,2.60
2023-10-24T12:50:48.131Z,2.60
2023-10-24T12:53:15.732Z,4.65
2023-10-24T12:55:42.655Z,6.10
2023-10-24T12:58:09.634Z,2.88
2023-10-24T13:00:36.800Z,3.80
2023-10-24T13:03:15.645Z,5.72
2023-10-24T13:05:47.575Z,4.05
2023-10-24T13:08:14.586Z,5.43
2023-10-24T13:10:43.620Z,3.28
2023-10-24T13:13:10.580Z,3.60
2023-10-24T13:15:38.049Z,7.10
2023-10-24T13:18:05.146Z,5.95
2023-10-24T13:20:31.886Z,8.35
2023-10-24T13:22:59.012Z,7.57
2023-10-24T13:25:25.907Z,7.00
2023-10-24T13:27:52.770Z,7.00
2023-10-24T13:30:33.786Z,8.02
2023-10-24T13:33:06.665Z,7.68
2023-10-24T13:38:03.665Z,8.05
2023-10-24T13:40:30.450Z,8.43
2023-10-24T13:42:57.460Z,9.73
2023-10-24T13:45:26.310Z,7.72
2023-10-24T13:47:53.533Z,8.32
2023-10-24T13:50:20.456Z,10.00
2023-10-24T13:52:49.782Z,10.30
2023-10-24T13:55:17.270Z,9.38
2023-10-24T13:57:44.755Z,10.00
2023-10-24T14:00:12.457Z,8.80
2023-10-24T14:02:39.569Z,9.10
2023-10-24T14:05:07.048Z,10.85
2023-10-24T14:07:34.119Z,9.25
2023-10-24T14:10:00.960Z,8.90
2023-10-24T14:12:27.744Z,9.30
2023-10-24T14:14:54.596Z,9.13
2023-10-24T14:17:21.425Z,9.27
2023-10-24T14:19:50.286Z,9.15
2023-10-24T14:22:17.038Z,8.60
2023-10-24T14:24:43.866Z,8.75
2023-10-24T14:27:10.703Z,8.52
2023-10-24T14:29:37.577Z,10.10
2023-10-24T14:32:04.888Z,8.40
2023-10-24T14:34:31.678Z,10.73
2023-10-24T14:36:58.634Z,8.73
2023-10-24T14:39:25.559Z,8.77
2023-10-24T14:41:52.459Z,10.43
2023-10-24T14:44:19.208Z,9.35
2023-10-24T14:46:46.354Z,10.73
2023-10-24T14:49:16.838Z,9.93
2023-10-24T14:51:44.530Z,10.43
2023-10-24T14:54:11.456Z,11.57
2023-10-24T14:56:43.698Z,11.23
2023-10-24T14:59:10.829Z,11.40
2023-10-24T15:01:37.844Z,10.68
2023-10-24T15:04:05.171Z,12.00
2023-10-24T15:06:32.695Z,12.95
2023-10-24T15:09:00.628Z,10.98
2023-10-24T15:11:27.602Z,10.75
2023-10-24T15:13:54.429Z,13.40
2023-10-24T15:16:23.673Z,11.20
2023-10-24T15:18:51.318Z,14.95
2023-10-24T15:21:18.152Z,11.80
2023-10-24T15:23:44.915Z,12.35
2023-10-24T15:26:11.986Z,12.65
2023-10-24T15:28:39.186Z,11.20
2023-10-24T15:31:06.372Z,13.02
2023-10-24T15:33:34.073Z,17.73
2023-10-24T15:36:02.441Z,13.48
2023-10-24T15:38:29.565Z,12.68
2023-10-24T15:41:02.277Z,14.60
2023-10-24T15:43:30.865Z,12.60
2023-10-24T15:46:21.156Z,13.43
2023-10-24T15:48:49.136Z,15.13
2023-10-24T15:51:16.548Z,22.08
2023-10-24T15:53:43.271Z,17.75
2023-10-24T15:56:10.602Z,13.57
2023-10-24T15:58:42.161Z,11.48
2023-10-24T16:01:17.708Z,12.10
2023-10-24T16:03:46.372Z,11.02
2023-10-24T16:06:18.178Z,11.10
2023-10-24T16:08:45.079Z,10.32
2023-10-24T16:11:12.565Z,12.65
2023-10-24T16:13:39.705Z,9.30
2023-10-24T16:16:06.780Z,15.15
2023-10-24T16:18:33.842Z,10.55
2023-10-24T16:21:03.168Z,11.43
2023-10-24T16:23:31.451Z,10.30
2023-10-24T16:26:01.273Z,13.27
2023-10-24T16:28:29.155Z,12.05
2023-10-24T16:30:56.670Z,11.55
2023-10-24T16:33:23.786Z,12.45
2023-10-24T16:35:52.519Z,11.48
2023-10-24T16:38:19.369Z,10.30
2023-10-24T16:40:46.894Z,12.82
2023-10-24T16:43:13.944Z,12.88
2023-10-24T16:45:40.862Z,12.25
2023-10-24T16:48:08.760Z,13.38
2023-10-24T16:50:38.781Z,14.00
2023-10-24T16:53:06.377Z,15.27
2023-10-24T16:55:33.966Z,13.63
2023-10-24T16:58:00.928Z,14.52
2023-10-24T17:00:28.211Z,17.23
2023-10-24T17:02:55.116Z,14.70
2023-10-24T17:05:22.226Z,12.98
2023-10-24T17:07:49.362Z,14.05
2023-10-24T17:10:18.411Z,14.32
2023-10-24T17:12:45.355Z,19.23
2023-10-24T17:15:12.575Z,15.13
2023-10-24T17:17:39.603Z,21.50
2023-10-24T17:20:07.544Z,17.15
2023-10-24T17:22:34.723Z,21.23
2023-10-24T17:25:03.592Z,17.98
2023-10-24T17:27:32.818Z,22.42
2023-10-24T17:29:59.883Z,18.73
2023-10-24T17:32:26.754Z,17.35
2023-10-24T17:34:53.878Z,16.75
2023-10-24T17:37:20.950Z,21.45
2023-10-24T17:39:48.564Z,17.02
2023-10-24T17:42:15.670Z,18.35
2023-10-24T17:44:44.494Z,22.85
2023-10-24T17:47:11.508Z,23.23
2023-10-24T17:49:38.659Z,19.67
2023-10-24T17:52:05.857Z,17.35
2023-10-24T17:54:32.672Z,16.67
2023-10-24T17:56:59.489Z,20.42
2023-10-24T17:59:26.748Z,18.80
2023-10-24T18:01:53.648Z,20.42
2023-10-24T18:04:22.322Z,18.10
2023-10-24T18:06:49.811Z,17.33
2023-10-24T18:09:16.973Z,18.27
2023-10-24T18:11:45.448Z,19.80
2023-10-24T18:14:12.866Z,15.85
2023-10-24T18:16:39.933Z,18.48
2023-10-24T18:19:06.806Z,17.73
2023-10-24T18:21:33.694Z,17.98
2023-10-24T18:24:00.571Z,18.30
2023-10-24T18:26:27.731Z,18.88
2023-10-24T18:28:54.936Z,22.90
2023-10-24T18:31:22.102Z,18.70
2023-10-24T18:33:49.903Z,23.52
2023-10-24T18:36:17.791Z,22.40
2023-10-24T18:38:45.124Z,21.83
2023-10-24T18:41:13.993Z,23.52
2023-10-24T18:43:41.047Z,23.33
2023-10-24T18:46:09.758Z,20.90
2023-10-24T18:48:37.643Z,20.27
2023-10-24T18:51:12.135Z,23.10
2023-10-24T18:53:39.886Z,22.92
2023-10-24T18:56:06.807Z,23.48
2023-10-24T18:58:34.090Z,22.48
2023-10-24T19:01:03.985Z,24.42
2023-10-24T19:03:32.283Z,25.98
2023-10-24T19:05:59.672Z,24.40
2023-10-24T19:08:26.555Z,27.25
2023-10-24T19:10:53.704Z,25.67
2023-10-24T19:13:21.158Z,26.20
2023-10-24T19:15:48.516Z,27.67
2023-10-24T19:18:15.886Z,26.38
2023-10-24T19:20:46.073Z,24.25
2023-10-24T19:23:14.652Z,30.02
2023-10-24T19:25:42.940Z,26.23
2023-10-24T19:28:12.247Z,31.95
2023-10-24T19:30:41.925Z,26.08
2023-10-24T19:33:09.092Z,26.88
2023-10-24T19:35:37.312Z,29.35
2023-10-24T19:38:07.210Z,28.60
2023-10-24T19:40:38.859Z,28.83
2023-10-24T19:43:06.714Z,32.78
2023-10-24T19:45:34.157Z,32.10
2023-10-24T19:48:12.916Z,30.13
2023-10-24T19:50:40.547Z,28.63
2023-10-24T19:53:07.773Z,29.75
2023-10-24T19:55:44.246Z,29.83
2023-10-24T20:00:42.476Z,29.65
2023-10-24T20:03:11.022Z,28.98
2023-10-24T20:05:49.420Z,34.95
2023-10-24T20:08:46.632Z,43.75
2023-10-24T20:12:37.591Z,42.80
2023-10-24T20:14:13.440Z,42.30
2023-10-24T20:16:44.727Z,30.45
2023-10-24T20:19:11.810Z,34.42
2023-10-24T20:21:38.888Z,29.48
2023-10-24T20:24:06.237Z,29.00
2023-10-24T20:26:37.592Z,29.25
2023-10-24T20:29:04.705Z,32.35
2023-10-24T20:31:31.622Z,29.30
2023-10-24T20:34:18.861Z,30.08
2023-10-24T20:37:39.701Z,31.45
2023-10-24T20:39:50.890Z,33.97
2023-10-24T20:42:20.639Z,32.60
2023-10-24T20:44:53.626Z,31.02
2023-10-24T20:47:21.557Z,32.38
2023-10-24T20:49:54.478Z,34.15
2023-10-24T20:52:24.224Z,34.92
2023-10-24T20:54:53.204Z,43.25
2023-10-24T20:57:20.165Z,37.28
2023-10-24T20:59:46.962Z,32.60
2023-10-24T21:02:13.905Z,39.15
2023-10-24T21:04:42.181Z,34.75
2023-10-24T21:07:09.397Z,34.90
2023-10-24T21:09:36.355Z,40.97
2023-10-24T21:12:05.661Z,39.70
2023-10-24T21:14:33.276Z,40.83
2023-10-24T21:17:00.301Z,40.33
2023-10-24T21:19:27.600Z,37.42
2023-10-24T21:21:54.551Z,34.75
2023-10-24T21:24:23.998Z,35.10
2023-10-24T21:26:51.223Z,38.75
2023-10-24T21:29:18.039Z,35.35
2023-10-24T21:31:47.138Z,32.58
2023-10-24T21:34:14.221Z,36.42
2023-10-24T21:36:41.175Z,40.75
2023-10-24T21:39:40.418Z,35.42
2023-10-24T21:42:04.639Z,33.67
2023-10-24T21:45:25.527Z,35.53
2023-10-24T21:48:12.016Z,32.80
2023-10-24T21:50:48.318Z,34.10
2023-10-24T21:53:17.565Z,35.15
2023-10-24T21:55:51.028Z,35.28
2023-10-24T21:58:40.756Z,34.67
2023-10-24T22:01:13.938Z,36.50
2023-10-24T22:03:40.990Z,39.97
2023-10-24T22:06:07.922Z,36.38
2023-10-24T22:08:34.890Z,34.45
2023-10-24T22:14:13.366Z,37.10
2023-10-24T22:14:42.796Z,39.60
2023-10-24T22:17:10.480Z,38.33
2023-10-24T22:19:37.445Z,37.25
2023-10-24T22:22:04.425Z,34.15
2023-10-24T22:24:31.701Z,35.40
2023-10-24T22:26:58.522Z,39.55
2023-10-24T22:29:25.369Z,34.22
2023-10-24T22:31:54.213Z,34.67
2023-10-24T22:34:21.756Z,39.20
2023-10-24T22:36:50.690Z,38.35
2023-10-24T22:39:17.760Z,37.00
2023-10-24T22:41:44.790Z,39.30
2023-10-24T22:44:11.908Z,36.10
2023-10-24T22:46:41.551Z,37.97
2023-10-24T22:49:09.490Z,40.60
2023-10-24T22:51:38.517Z,36.75
2023-10-24T22:54:08.326Z,42.63
2023-10-24T22:56:37.425Z,47.00
2023-10-24T22:59:06.874Z,42.63
2023-10-24T23:01:58.681Z,38.92
2023-10-24T23:04:26.029Z,40.13
2023-10-24T23:06:54.029Z,41.38
2023-10-24T23:09:21.691Z,38.03
2023-10-24T23:11:48.544Z,37.70
2023-10-24T23:14:19.740Z,36.88
2023-10-24T23:16:46.848Z,48.57
2023-10-24T23:19:13.923Z,42.60
2023-10-24T23:21:40.846Z,43.83
2023-10-24T23:24:08.073Z,45.25
2023-10-24T23:26:35.259Z,44.97
2023-10-24T23:29:02.159Z,40.22
2023-10-24T23:31:29.080Z,42.53
2023-10-24T23:33:58.231Z,41.63
2023-10-24T23:36:25.108Z,39.50
2023-10-24T23:38:52.079Z,40.33
2023-10-24T23:41:21.810Z,39.15
2023-10-24T23:43:48.755Z,42.22
2023-10-24T23:46:15.676Z,38.80
2023-10-24T23:48:42.611Z,39.25
2023-10-24T23:51:09.459Z,40.60
2023-10-24T23:53:36.312Z,46.50
2023-10-24T23:56:03.266Z,42.70
2023-10-24T23:58:45.223Z,47.22
